Time;durP1;ratioP1;P1;durP2;ratioP2;P2;SDS_P1;SDS_P2;PMS_P1;PMS_P2;Temp;Humidity;BMP_temperature;BMP_pressure;BME280_temperature;BME280_humidity;BME280_pressure;Samples;Min_cycle;Max_cycle;Signal;HPM_P1;HPM_P2
2023/08/12 00:01:35;;;;;;;10.60;7.65;;;18.60;99.90;;;;;;5064338;28;20050;-41
2023/08/12 00:04:01;;;;;;;11.35;7.82;;;18.50;99.90;;;;;;5076378;28;20040;-42
2023/08/12 00:06:28;;;;;;;12.00;8.10;;;18.50;99.90;;;;;;5075964;28;20551;-41
2023/08/12 00:08:53;;;;;;;12.52;7.75;;;18.50;99.90;;;;;;5075297;28;20495;-39
2023/08/12 00:11:19;;;;;;;9.43;7.32;;;18.50;99.90;;;;;;5074904;28;20098;-42
2023/08/12 00:13:44;;;;;;;11.82;8.55;;;18.50;99.90;;;;;;5072860;28;20051;-42
2023/08/12 00:16:10;;;;;;;11.25;7.88;;;18.50;99.90;;;;;;5054564;28;20056;-39
2023/08/12 00:18:36;;;;;;;9.68;7.70;;;18.50;99.90;;;;;;5054693;28;20079;-42
2023/08/12 00:21:09;;;;;;;10.07;8.05;;;18.50;99.90;;;;;;5054128;28;20570;-42
2023/08/12 00:23:37;;;;;;;;;;;18.50;99.90;;;;;;5067732;28;20055;-40
2023/08/12 00:26:03;;;;;;;10.10;8.40;;;18.40;99.90;;;;;;5075684;28;19928;-42
2023/08/12 00:28:28;;;;;;;9.65;7.75;;;18.40;99.90;;;;;;5073798;28;20066;-45
2023/08/12 00:30:54;;;;;;;12.75;8.88;;;18.40;99.90;;;;;;5073427;28;20842;-41
2023/08/12 00:33:20;;;;;;;12.68;8.55;;;18.40;99.90;;;;;;5075487;28;20127;-41
2023/08/12 00:35:45;;;;;;;13.63;8.45;;;18.40;99.90;;;;;;5073595;28;20141;-45
2023/08/12 00:38:11;;;;;;;13.30;8.98;;;18.40;99.90;;;;;;5074714;28;20059;-39
2023/08/12 00:40:36;;;;;;;12.32;7.85;;;18.40;99.90;;;;;;5075086;28;20402;-38
2023/08/12 00:43:03;;;;;;;10.38;8.13;;;18.40;99.90;;;;;;5074831;28;20544;-39
2023/08/12 00:45:29;;;;;;;12.02;8.25;;;18.40;99.90;;;;;;5074107;28;20051;-44
2023/08/12 00:47:55;;;;;;;9.68;8.07;;;18.40;99.90;;;;;;5073204;28;20131;-43
2023/08/12 00:50:21;;;;;;;10.82;7.50;;;18.40;99.90;;;;;;5074225;28;20047;-42
2023/08/12 00:52:47;;;;;;;12.73;8.23;;;18.30;99.90;;;;;;5048571;28;20149;-38
2023/08/12 00:55:13;;;;;;;11.23;8.20;;;18.40;99.90;;;;;;5054255;28;20693;-39
2023/08/12 00:57:39;;;;;;;12.93;8.63;;;18.30;99.90;;;;;;5054744;28;20490;-45
2023/08/12 01:00:05;;;;;;;11.40;8.27;;;18.30;99.90;;;;;;5055216;28;20643;-43
2023/08/12 01:02:31;;;;;;;11.50;7.20;;;18.40;99.90;;;;;;5053418;28;20155;-42
2023/08/12 01:04:58;;;;;;;8.82;7.82;;;18.30;99.90;;;;;;5054991;28;20041;-39
2023/08/12 01:07:23;;;;;;;12.70;8.45;;;18.30;99.90;;;;;;5054289;28;20499;-42
2023/08/12 01:09:49;;;;;;;9.15;7.75;;;18.30;99.90;;;;;;5054276;28;20056;-39
2023/08/12 01:12:24;;;;;;;10.55;7.57;;;18.30;99.90;;;;;;5054948;28;20044;-43
2023/08/12 01:14:54;;;;;;;14.05;8.40;;;18.20;99.90;;;;;;5052991;28;20048;-43
2023/08/12 01:17:20;;;;;;;10.52;8.77;;;18.20;99.90;;;;;;5057639;28;20052;-43
2023/08/12 01:19:47;;;;;;;12.07;8.00;;;18.20;99.90;;;;;;5074940;28;20102;-42
2023/08/12 01:22:14;;;;;;;12.07;8.95;;;18.20;99.90;;;;;;5064079;28;20048;-40
2023/08/12 01:24:41;;;;;;;12.90;8.18;;;18.20;99.90;;;;;;5055141;28;20151;-40
2023/08/12 01:27:09;;;;;;;10.82;8.85;;;18.10;99.90;;;;;;5056862;28;20138;-38
2023/08/12 01:29:44;;;;;;;11.40;9.13;;;18.10;99.90;;;;;;5073511;28;20075;-40
2023/08/12 01:32:31;;;;;;;10.40;8.75;;;18.10;99.90;;;;;;5074440;28;20151;-39
2023/08/12 01:35:20;;;;;;;13.30;9.15;;;18.10;99.90;;;;;;5074804;28;20052;-42
2023/08/12 01:37:49;;;;;;;10.52;9.05;;;18.00;99.90;;;;;;5074342;28;20152;-41
2023/08/12 01:40:16;;;;;;;12.13;9.25;;;18.00;99.90;;;;;;5073558;28;20518;-39
2023/08/12 01:42:42;;;;;;;14.00;9.55;;;17.90;99.90;;;;;;5075107;28;20044;-40
2023/08/12 01:45:08;;;;;;;13.57;9.60;;;18.00;99.90;;;;;;5074166;28;20056;-39
2023/08/12 01:47:34;;;;;;;10.13;9.10;;;18.00;99.90;;;;;;5074080;28;20122;-40
2023/08/12 01:49:59;;;;;;;13.60;9.20;;;17.90;99.90;;;;;;5075897;28;20056;-45
2023/08/12 01:52:25;;;;;;;12.50;9.70;;;17.90;99.90;;;;;;5055689;28;20045;-40
2023/08/12 01:54:51;;;;;;;15.80;10.38;;;17.90;99.90;;;;;;5058516;28;20367;-44
2023/08/12 01:57:17;;;;;;;12.85;9.55;;;18.00;99.90;;;;;;5058140;28;20094;-40
2023/08/12 01:59:46;;;;;;;13.98;9.77;;;18.00;99.90;;;;;;5057024;28;20430;-39
2023/08/12 02:02:12;;;;;;;15.82;10.32;;;17.90;99.90;;;;;;5052857;28;20110;-42
2023/08/12 02:04:40;;;;;;;14.30;9.15;;;18.00;99.90;;;;;;5057511;28;20052;-43
2023/08/12 02:07:05;;;;;;;15.25;9.88;;;17.90;99.90;;;;;;5055465;28;20078;-39
2023/08/12 02:09:31;;;;;;;11.20;8.35;;;17.90;99.90;;;;;;5055844;28;20049;-42
2023/08/12 02:11:57;;;;;;;13.52;9.88;;;17.80;99.90;;;;;;5058704;28;20052;-44
2023/08/12 02:14:22;;;;;;;11.85;10.18;;;17.80;99.90;;;;;;5055546;28;20044;-39
2023/08/12 02:16:48;;;;;;;13.50;10.15;;;17.80;99.90;;;;;;5058136;28;20059;-43
2023/08/12 02:19:14;;;;;;;13.32;9.27;;;17.80;99.90;;;;;;5063092;28;20526;-42
2023/08/12 02:21:40;;;;;;;15.38;10.55;;;17.80;99.90;;;;;;5073395;28;20058;-40
2023/08/12 02:24:06;;;;;;;16.67;10.38;;;17.80;99.90;;;;;;5063186;28;20118;-44
2023/08/12 02:26:32;;;;;;;16.55;10.25;;;17.80;99.90;;;;;;5077306;28;20128;-42
2023/08/12 02:28:57;;;;;;;16.10;10.63;;;17.80;99.90;;;;;;5077354;28;20509;-39
2023/08/12 02:31:23;;;;;;;16.30;11.43;;;17.90;99.90;;;;;;5076652;28;20056;-42
2023/08/12 02:33:52;;;;;;;12.40;9.82;;;17.90;99.90;;;;;;5077491;28;20048;-43
2023/08/12 02:36:17;;;;;;;17.25;11.23;;;17.90;99.90;;;;;;5077506;28;20560;-39
2023/08/12 02:38:43;;;;;;;13.43;10.38;;;17.90;99.90;;;;;;5077630;28;20051;-44
2023/08/12 02:41:09;;;;;;;16.42;11.30;;;18.00;99.90;;;;;;5076667;28;20040;-43
2023/08/12 02:43:35;;;;;;;15.32;11.35;;;18.00;99.90;;;;;;5077889;28;20040;-41
2023/08/12 02:46:00;;;;;;;14.25;11.20;;;18.00;99.90;;;;;;5075952;28;20052;-38
2023/08/12 02:48:26;;;;;;;15.45;9.80;;;18.00;99.90;;;;;;5077072;28;20048;-44
2023/08/12 02:50:52;;;;;;;13.05;10.32;;;18.10;99.90;;;;;;5063434;28;20044;-39
2023/08/12 02:53:17;;;;;;;16.42;11.55;;;18.10;99.90;;;;;;5052963;28;20152;-39
2023/08/12 02:55:45;;;;;;;14.02;10.15;;;18.10;99.90;;;;;;5076750;28;20048;-45
2023/08/12 02:58:11;;;;;;;11.98;10.25;;;18.20;99.90;;;;;;5076981;28;20044;-44
2023/08/12 03:00:37;;;;;;;14.52;11.35;;;18.20;99.90;;;;;;5075484;28;20043;-40
2023/08/12 03:03:04;;;;;;;17.42;10.48;;;18.20;99.90;;;;;;5076381;28;20153;-42
2023/08/12 03:05:32;;;;;;;11.52;9.77;;;18.30;99.90;;;;;;5075823;28;20055;-45
2023/08/12 03:08:01;;;;;;;14.13;11.20;;;18.30;99.90;;;;;;5077049;28;20051;-40
2023/08/12 03:10:27;;;;;;;18.38;11.85;;;18.40;99.90;;;;;;5076032;28;20050;-42
2023/08/12 03:12:53;;;;;;;13.30;10.68;;;18.30;99.90;;;;;;5077168;28;20473;-42
2023/08/12 03:15:19;;;;;;;12.77;10.40;;;18.30;99.90;;;;;;5060026;28;20469;-44
2023/08/12 03:17:44;;;;;;;15.23;11.13;;;18.40;99.90;;;;;;5056734;28;20053;-44
2023/08/12 03:20:10;;;;;;;14.35;10.93;;;18.40;99.90;;;;;;5056444;28;20102;-40
2023/08/12 03:22:37;;;;;;;11.82;10.15;;;18.30;99.90;;;;;;5063171;28;20040;-42
2023/08/12 03:25:03;;;;;;;12.23;10.80;;;18.40;99.90;;;;;;5056418;28;20084;-42
2023/08/12 03:27:29;;;;;;;16.92;11.80;;;18.40;99.90;;;;;;5063156;28;20077;-40
2023/08/12 03:29:55;;;;;;;14.43;11.68;;;18.40;99.90;;;;;;5076143;28;20044;-43
2023/08/12 03:32:20;;;;;;;14.38;10.75;;;18.40;99.90;;;;;;5076360;28;20968;-42
2023/08/12 03:34:46;;;;;;;14.40;11.07;;;18.50;99.90;;;;;;5076577;28;20044;-43
2023/08/12 03:37:12;;;;;;;14.45;11.40;;;18.40;99.90;;;;;;5075294;28;20059;-43
2023/08/12 03:39:37;;;;;;;12.45;10.23;;;18.50;99.90;;;;;;5075154;28;20040;-42
2023/08/12 03:42:03;;;;;;;14.82;10.68;;;18.50;99.90;;;;;;5075870;28;20052;-39
2023/08/12 03:44:29;;;;;;;16.20;11.27;;;18.50;99.90;;;;;;5076016;28;20419;-44
2023/08/12 03:46:54;;;;;;;11.90;10.70;;;18.50;99.90;;;;;;5067573;28;20522;-40
2023/08/12 03:49:20;;;;;;;14.02;10.23;;;18.50;99.90;;;;;;5069246;28;20411;-42
2023/08/12 03:51:46;;;;;;;16.67;11.20;;;18.50;99.90;;;;;;5062935;28;20118;-44
2023/08/12 03:54:12;;;;;;;17.15;11.23;;;18.50;99.90;;;;;;5048477;28;20059;-39
2023/08/12 03:56:37;;;;;;;16.92;10.82;;;18.50;99.90;;;;;;5055268;28;20095;-45
2023/08/12 03:59:03;;;;;;;16.85;11.90;;;18.50;99.90;;;;;;5055001;28;20056;-43
2023/08/12 04:01:29;;;;;;;12.75;9.85;;;18.50;99.90;;;;;;5042539;28;20360;-44
2023/08/12 04:03:54;;;;;;;14.07;10.82;;;18.50;99.90;;;;;;5048041;28;20045;-41
2023/08/12 04:06:20;;;;;;;14.55;10.73;;;18.50;99.90;;;;;;5052368;28;20143;-41
2023/08/12 04:08:46;;;;;;;14.10;10.60;;;18.50;99.90;;;;;;5055448;28;20135;-46
2023/08/12 04:11:11;;;;;;;15.07;11.30;;;18.50;99.90;;;;;;5054170;28;20040;-39
2023/08/12 04:13:37;;;;;;;12.68;10.63;;;18.60;99.90;;;;;;5055278;28;20067;-41
2023/08/12 04:16:03;;;;;;;12.75;10.40;;;18.60;99.90;;;;;;5053102;28;20537;-49
2023/08/12 04:18:28;;;;;;;12.88;10.48;;;18.60;99.90;;;;;;5054263;28;20040;-44
2023/08/12 04:20:54;;;;;;;13.18;10.68;;;18.60;99.90;;;;;;5058747;28;20140;-45
2023/08/12 04:23:20;;;;;;;18.00;11.65;;;18.60;99.90;;;;;;5068044;28;20132;-43
2023/08/12 04:25:46;;;;;;;11.85;10.63;;;18.60;99.90;;;;;;5073960;28;20059;-43
2023/08/12 04:28:13;;;;;;;17.88;11.10;;;18.60;99.90;;;;;;5074928;28;20215;-45
2023/08/12 04:30:47;;;;;;;12.70;11.25;;;18.60;99.90;;;;;;5075118;28;20051;-42
2023/08/12 04:33:13;;;;;;;14.07;11.38;;;18.50;99.90;;;;;;5074942;28;20523;-40
2023/08/12 04:35:39;;;;;;;14.77;11.80;;;18.60;99.90;;;;;;5075751;28;20098;-43
2023/08/12 04:38:05;;;;;;;14.65;10.65;;;18.60;99.90;;;;;;5057817;28;20059;-42
2023/08/12 04:40:32;;;;;;;14.35;11.32;;;18.60;99.90;;;;;;5075216;28;20451;-45
2023/08/12 04:43:01;;;;;;;16.17;11.20;;;18.60;99.90;;;;;;5075177;28;20569;-40
2023/08/12 04:45:27;;;;;;;12.60;11.02;;;18.70;99.90;;;;;;5055649;28;20048;-44
2023/08/12 04:47:53;;;;;;;13.32;10.13;;;18.60;99.90;;;;;;5053671;28;20509;-42
2023/08/12 04:50:19;;;;;;;14.32;10.23;;;18.60;99.90;;;;;;5054530;28;20137;-44
2023/08/12 04:52:46;;;;;;;14.85;11.10;;;18.70;99.90;;;;;;5045142;28;20057;-41
2023/08/12 04:55:12;;;;;;;15.15;10.70;;;18.70;99.90;;;;;;5075297;28;20062;-40
2023/08/12 04:57:37;;;;;;;14.05;10.35;;;18.70;99.90;;;;;;5056831;28;20056;-41
2023/08/12 05:00:05;;;;;;;13.18;10.75;;;18.80;99.90;;;;;;5074619;28;20048;-39
2023/08/12 05:02:30;;;;;;;17.23;11.52;;;18.80;99.90;;;;;;5074364;28;20058;-42
2023/08/12 05:04:56;;;;;;;15.00;10.82;;;18.80;99.90;;;;;;5075482;28;20056;-44
2023/08/12 05:07:22;;;;;;;17.52;12.25;;;19.00;99.90;;;;;;5072859;28;20047;-43
2023/08/12 05:09:48;;;;;;;18.33;11.32;;;19.00;99.90;;;;;;5074630;28;20146;-43
2023/08/12 05:12:13;;;;;;;16.65;12.95;;;19.10;99.90;;;;;;5074508;28;20076;-45
2023/08/12 05:14:40;;;;;;;16.20;11.32;;;19.10;99.90;;;;;;5062926;28;20407;-43
2023/08/12 05:17:06;;;;;;;15.93;11.77;;;19.20;99.90;;;;;;5055715;28;20128;-43
2023/08/12 05:19:32;;;;;;;14.02;10.98;;;19.20;99.90;;;;;;5074450;28;20223;-39
2023/08/12 05:21:58;;;;;;;15.98;11.85;;;19.30;99.90;;;;;;5057240;28;20499;-42
2023/08/12 05:24:24;;;;;;;16.80;11.95;;;19.30;99.90;;;;;;5068101;28;20540;-46
2023/08/12 05:26:49;;;;;;;16.75;11.82;;;19.40;99.90;;;;;;5079171;28;20048;-42
2023/08/12 05:29:15;;;;;;;18.17;12.00;;;19.40;99.90;;;;;;5076801;28;20048;-43
2023/08/12 05:31:41;;;;;;;19.73;12.40;;;19.50;99.90;;;;;;5063098;28;20086;-46
2023/08/12 05:34:06;;;;;;;16.17;11.57;;;19.50;99.90;;;;;;5058345;28;20059;-39
2023/08/12 05:36:32;;;;;;;16.05;12.35;;;19.50;99.90;;;;;;5057294;28;20059;-39
2023/08/12 05:38:58;;;;;;;16.83;12.38;;;19.50;99.90;;;;;;5056423;28;20056;-42
2023/08/12 05:41:24;;;;;;;16.30;12.13;;;19.50;99.90;;;;;;5058064;28;20049;-43
2023/08/12 05:43:50;;;;;;;18.83;12.45;;;19.60;99.90;;;;;;5058092;28;20055;-46
2023/08/12 05:46:15;;;;;;;19.30;13.95;;;19.60;99.90;;;;;;5056137;28;20052;-45
2023/08/12 05:48:41;;;;;;;18.08;14.20;;;19.60;99.90;;;;;;5058134;28;20051;-42
2023/08/12 05:51:07;;;;;;;17.13;14.00;;;19.60;99.90;;;;;;5056621;28;20090;-40
2023/08/12 05:53:33;;;;;;;19.15;15.18;;;19.70;99.90;;;;;;5046914;28;20052;-41
2023/08/12 05:55:59;;;;;;;20.83;15.13;;;19.70;99.90;;;;;;5058444;28;20155;-46
2023/08/12 05:58:24;;;;;;;20.02;15.40;;;19.70;99.90;;;;;;5057350;28;20123;-43
2023/08/12 06:00:50;;;;;;;22.67;15.55;;;19.60;99.90;;;;;;5057404;28;20508;-46
2023/08/12 06:03:16;;;;;;;20.58;14.00;;;19.60;99.90;;;;;;5058304;28;20121;-41
2023/08/12 06:05:45;;;;;;;20.08;15.80;;;19.60;99.90;;;;;;5056481;28;20056;-41
2023/08/12 06:08:11;;;;;;;23.33;17.20;;;19.60;99.90;;;;;;5066025;28;20402;-43
2023/08/12 06:10:36;;;;;;;25.45;16.90;;;19.50;99.90;;;;;;5077705;28;20047;-40
2023/08/12 06:13:02;;;;;;;27.10;17.27;;;19.50;99.90;;;;;;5077973;28;20123;-43
2023/08/12 06:15:28;;;;;;;20.05;17.45;;;19.60;99.90;;;;;;5059081;28;20183;-45
2023/08/12 06:17:53;;;;;;;21.40;16.92;;;19.60;99.90;;;;;;5058087;28;20411;-38
2023/08/12 06:20:19;;;;;;;23.33;16.77;;;19.50;99.90;;;;;;5056970;28;20106;-43
2023/08/12 06:22:45;;;;;;;20.00;16.85;;;19.60;99.90;;;;;;5054703;28;20048;-40
2023/08/12 06:25:11;;;;;;;22.35;17.80;;;19.60;99.90;;;;;;5056053;28;20070;-43
2023/08/12 06:27:36;;;;;;;24.35;18.17;;;19.60;99.90;;;;;;5057057;28;20062;-42
2023/08/12 06:30:02;;;;;;;23.95;18.60;;;19.60;99.90;;;;;;5071854;28;20048;-42
2023/08/12 06:32:28;;;;;;;21.83;17.88;;;19.70;99.90;;;;;;5078366;28;20066;-48
2023/08/12 06:34:53;;;;;;;23.17;18.08;;;19.70;99.90;;;;;;5076676;28;20040;-40
2023/08/12 06:37:19;;;;;;;23.92;19.15;;;19.70;99.90;;;;;;5077731;28;20513;-43
2023/08/12 06:39:45;;;;;;;23.90;18.90;;;19.70;99.90;;;;;;5077247;28;20044;-44
2023/08/12 06:42:10;;;;;;;27.92;19.27;;;19.70;99.90;;;;;;5076682;28;20060;-39
2023/08/12 06:44:36;;;;;;;24.77;20.42;;;19.90;99.90;;;;;;5076630;28;20395;-46
2023/08/12 06:47:01;;;;;;;29.77;20.08;;;19.80;99.90;;;;;;5077678;28;20505;-40
2023/08/12 06:49:27;;;;;;;23.95;20.27;;;19.80;99.90;;;;;;5077275;28;20055;-41
2023/08/12 06:51:53;;;;;;;28.40;21.10;;;19.80;99.90;;;;;;5060934;28;20040;-40
2023/08/12 06:54:18;;;;;;;29.17;22.38;;;19.80;99.90;;;;;;5066155;28;20118;-44
2023/08/12 06:56:44;;;;;;;24.25;21.52;;;19.90;99.90;;;;;;5068798;28;20048;-41
2023/08/12 06:59:10;;;;;;;29.25;22.73;;;19.80;99.90;;;;;;5070603;28;20070;-44
2023/08/12 07:01:36;;;;;;;27.63;21.60;;;19.90;99.90;;;;;;5068953;28;20076;-43
2023/08/12 07:04:02;;;;;;;26.77;22.02;;;19.90;99.90;;;;;;5071287;28;20589;-40
2023/08/12 07:06:27;;;;;;;27.00;22.15;;;19.90;99.90;;;;;;5076329;28;20048;-41
2023/08/12 07:08:53;;;;;;;27.40;21.27;;;19.90;99.90;;;;;;5074813;28;20477;-39
2023/08/12 07:11:19;;;;;;;29.10;22.40;;;20.00;99.90;;;;;;5077059;28;20059;-44
2023/08/12 07:13:46;;;;;;;26.23;20.33;;;20.00;99.90;;;;;;5074095;28;20064;-44
2023/08/12 07:16:12;;;;;;;24.38;20.02;;;20.00;99.90;;;;;;5055089;28;20049;-40
2023/08/12 07:18:37;;;;;;;24.45;20.00;;;20.10;99.90;;;;;;5057377;28;20958;-40
2023/08/12 07:21:03;;;;;;;25.73;20.25;;;20.10;99.90;;;;;;5076390;28;20044;-42
2023/08/12 07:23:29;;;;;;;24.48;19.77;;;20.10;99.90;;;;;;5055269;28;20056;-43
2023/08/12 07:25:55;;;;;;;24.08;21.13;;;20.10;99.90;;;;;;5063495;28;20043;-42
2023/08/12 07:28:21;;;;;;;25.05;19.60;;;20.10;99.90;;;;;;5075804;28;20295;-40
2023/08/12 07:30:49;;;;;;;24.15;19.52;;;20.20;99.90;;;;;;5061420;28;20044;-42
2023/08/12 07:33:15;;;;;;;25.77;19.90;;;20.20;99.90;;;;;;5108087;27;20078;-42
2023/08/12 07:35:41;;;;;;;25.38;19.35;;;20.20;99.90;;;;;;5063511;28;20494;-43
2023/08/12 07:38:06;;;;;;;23.17;20.73;;;20.30;99.90;;;;;;5075216;28;20581;-45
2023/08/12 07:40:33;;;;;;;19.58;17.63;;;20.40;99.90;;;;;;5075325;28;20048;-42
2023/08/12 07:42:58;;;;;;;23.10;20.35;;;20.50;99.90;;;;;;5075072;28;20044;-45
2023/08/12 07:45:24;;;;;;;23.40;19.85;;;20.50;99.90;;;;;;5056317;28;20522;-41
2023/08/12 07:47:50;;;;;;;24.67;20.65;;;20.40;99.90;;;;;;5056083;28;20078;-42
2023/08/12 07:50:16;;;;;;;26.80;19.92;;;20.40;99.90;;;;;;5075939;28;20403;-39
2023/08/12 07:52:41;;;;;;;28.88;22.00;;;20.50;99.90;;;;;;5048380;28;20060;-45
2023/08/12 07:55:07;;;;;;;30.55;20.85;;;20.30;99.90;;;;;;5063104;28;20499;-40
2023/08/12 07:57:33;;;;;;;24.00;21.30;;;20.30;99.90;;;;;;5075125;28;20056;-43
2023/08/12 07:59:59;;;;;;;27.27;22.98;;;20.30;99.90;;;;;;5073821;28;20074;-44
2023/08/12 08:02:24;;;;;;;29.73;24.00;;;20.10;99.90;;;;;;5075947;28;20127;-41
2023/08/12 08:04:50;;;;;;;32.15;24.00;;;20.20;99.90;;;;;;5075909;28;20082;-43
2023/08/12 08:07:16;;;;;;;32.05;25.35;;;20.10;99.90;;;;;;5073646;28;20055;-41
2023/08/12 08:09:43;;;;;;;37.58;27.83;;;20.10;99.90;;;;;;5075243;28;20573;-39
2023/08/12 08:12:10;;;;;;;37.88;27.00;;;20.00;99.90;;;;;;5074745;28;20083;-40
2023/08/12 08:14:36;;;;;;;40.05;27.98;;;20.00;99.90;;;;;;5053264;28;20044;-44
2023/08/12 08:17:02;;;;;;;41.38;28.75;;;19.90;99.90;;;;;;5055298;28;20410;-40
2023/08/12 08:19:27;;;;;;;44.45;29.48;;;20.00;99.90;;;;;;5075050;28;20051;-42
2023/08/12 08:21:53;;;;;;;45.08;31.02;;;19.90;99.90;;;;;;5067189;28;20521;-42
2023/08/12 08:24:19;;;;;;;45.65;30.73;;;19.90;99.90;;;;;;5055494;28;20436;-46
2023/08/12 08:26:47;;;;;;;40.33;30.33;;;19.90;99.90;;;;;;5054899;28;20139;-45
2023/08/12 08:29:13;;;;;;;42.78;31.95;;;19.90;99.90;;;;;;5055018;28;20090;-42
2023/08/12 08:31:39;;;;;;;52.67;34.85;;;19.90;99.90;;;;;;5070418;28;20656;-47
2023/08/12 08:34:06;;;;;;;56.45;36.65;;;19.90;99.90;;;;;;5065256;28;20094;-42
2023/08/12 08:36:31;;;;;;;50.58;36.70;;;19.90;99.90;;;;;;5070043;28;20103;-41
2023/08/12 08:38:57;;;;;;;53.13;36.22;;;20.10;99.90;;;;;;5075466;28;20533;-42
2023/08/12 08:41:24;;;;;;;50.92;37.65;;;20.00;99.90;;;;;;5075428;28;20079;-42
2023/08/12 08:43:54;;;;;;;43.10;32.75;;;20.10;99.90;;;;;;5076198;28;20539;-46
2023/08/12 08:46:21;;;;;;;54.35;37.33;;;20.10;99.90;;;;;;5073734;28;20080;-44
2023/08/12 08:48:48;;;;;;;58.83;38.53;;;20.20;99.90;;;;;;5075637;28;20566;-42
2023/08/12 08:51:14;;;;;;;40.22;32.25;;;20.30;99.90;;;;;;5072100;28;20044;-46
2023/08/12 08:53:41;;;;;;;47.53;36.47;;;20.30;99.90;;;;;;5045518;28;20450;-42
2023/08/12 08:56:07;;;;;;;45.03;36.00;;;20.20;99.90;;;;;;5054400;28;20048;-43
2023/08/12 08:58:33;;;;;;;42.28;34.00;;;20.30;99.90;;;;;;5054455;28;20206;-44
2023/08/12 09:01:00;;;;;;;47.58;36.47;;;20.30;99.90;;;;;;5054632;28;20061;-46
2023/08/12 09:03:26;;;;;;;34.63;30.50;;;20.30;99.90;;;;;;5054838;28;20123;-42
2023/08/12 09:05:55;;;;;;;40.88;31.15;;;20.30;99.90;;;;;;5054175;28;20086;-39
2023/08/12 09:08:22;;;;;;;35.83;31.75;;;20.20;99.90;;;;;;5054456;28;20048;-45
2023/08/12 09:10:49;;;;;;;36.63;31.17;;;20.20;99.90;;;;;;5054366;28;20048;-39
2023/08/12 09:13:16;;;;;;;39.85;30.45;;;20.20;99.90;;;;;;5055091;28;20048;-43
2023/08/12 09:15:41;;;;;;;36.53;30.27;;;20.20;99.90;;;;;;5050228;28;20045;-47
2023/08/12 09:18:07;;;;;;;23.67;21.10;;;20.10;99.90;;;;;;5054519;28;20076;-39
2023/08/12 09:20:33;;;;;;;25.65;22.98;;;20.00;99.90;;;;;;5057010;28;20506;-41
2023/08/12 09:23:00;;;;;;;26.33;23.58;;;20.00;99.90;;;;;;5057733;28;20584;-44
2023/08/12 09:25:29;;;;;;;27.15;22.17;;;19.90;99.90;;;;;;5070320;28;20073;-42
2023/08/12 09:27:58;;;;;;;29.10;21.42;;;19.90;99.90;;;;;;5074885;28;20422;-39
2023/08/12 09:30:24;;;;;;;25.23;21.42;;;19.90;99.90;;;;;;5073426;28;20044;-39
2023/08/12 09:33:07;;;;;;;25.92;19.35;;;19.80;99.90;;;;;;5074332;28;20391;-46
2023/08/12 09:35:38;;;;;;;21.73;18.35;;;19.80;99.90;;;;;;5048397;28;20048;-42
2023/08/12 09:38:10;;;;;;;24.90;17.92;;;19.80;99.90;;;;;;5073102;28;20056;-39
2023/08/12 09:40:36;;;;;;;19.83;17.77;;;20.00;99.90;;;;;;5074000;28;20043;-43
2023/08/12 09:43:03;;;;;;;20.80;18.58;;;20.00;99.90;;;;;;5074415;28;20049;-40
2023/08/12 09:45:31;;;;;;;20.90;18.65;;;20.00;99.90;;;;;;5075316;28;20210;-40
2023/08/12 09:47:57;;;;;;;21.38;18.40;;;20.10;99.90;;;;;;5074361;28;20127;-46
2023/08/12 09:50:25;;;;;;;19.63;16.13;;;20.10;99.90;;;;;;5065876;28;20835;-41
2023/08/12 09:52:51;;;;;;;17.95;16.15;;;20.10;99.90;;;;;;5038739;28;20103;-43
2023/08/12 09:55:19;;;;;;;17.60;16.00;;;20.20;99.90;;;;;;5065351;28;20079;-41
2023/08/12 09:57:48;;;;;;;16.80;14.13;;;20.30;99.90;;;;;;5074690;28;20083;-40
2023/08/12 10:00:19;;;;;;;15.68;14.07;;;20.50;99.90;;;;;;5074413;28;20051;-42
2023/08/12 10:02:46;;;;;;;11.05;9.93;;;20.50;99.90;;;;;;5074222;28;20105;-40
2023/08/12 10:05:18;;;;;;;13.73;10.48;;;20.50;99.90;;;;;;5073490;28;20048;-43
2023/08/12 10:07:45;;;;;;;9.23;7.90;;;20.40;99.90;;;;;;5067740;28;20574;-43
2023/08/12 10:10:12;;;;;;;12.30;7.22;;;20.30;99.90;;;;;;5068924;28;20412;-39
2023/08/12 10:12:38;;;;;;;7.53;6.45;;;20.20;99.90;;;;;;5078194;28;20105;-44
2023/08/12 10:15:06;;;;;;;6.93;6.22;;;20.20;99.90;;;;;;5062509;28;20105;-42
2023/08/12 10:17:33;;;;;;;13.90;7.00;;;20.10;99.90;;;;;;5062170;28;20087;-45
2023/08/12 10:20:04;;;;;;;7.82;5.68;;;20.10;99.90;;;;;;5077757;28;20052;-45
2023/08/12 10:22:30;;;;;;;6.20;4.63;;;20.20;99.90;;;;;;5053737;28;20433;-46
2023/08/12 10:25:00;;;;;;;8.70;4.50;;;20.20;99.90;;;;;;5057767;28;20055;-43
2023/08/12 10:27:26;;;;;;;5.28;4.05;;;20.10;99.90;;;;;;5058075;28;20053;-44
2023/08/12 10:29:52;;;;;;;7.93;3.28;;;20.10;99.90;;;;;;5056939;28;20049;-42
2023/08/12 10:32:18;;;;;;;6.38;3.10;;;19.60;99.90;;;;;;5057741;28;20052;-41
2023/08/12 10:34:44;;;;;;;6.32;3.08;;;19.30;99.90;;;;;;5057134;28;20543;-44
2023/08/12 10:37:11;;;;;;;5.88;2.88;;;19.10;99.90;;;;;;5056353;28;20300;-42
2023/08/12 10:39:38;;;;;;;6.32;2.70;;;18.90;99.90;;;;;;5070981;28;20040;-41
2023/08/12 10:42:04;;;;;;;4.93;2.67;;;18.80;99.90;;;;;;5069677;28;20064;-46
2023/08/12 10:44:54;;;;;;;7.70;2.97;;;18.60;99.90;;;;;;5071505;28;20055;-42
2023/08/12 10:47:19;;;;;;;6.72;3.15;;;18.60;99.90;;;;;;5077025;28;20056;-46
2023/08/12 10:49:50;;;;;;;7.97;3.38;;;18.60;99.90;;;;;;5075353;28;20403;-40
2023/08/12 10:52:28;;;;;;;8.82;3.95;;;18.70;99.90;;;;;;5056789;28;20450;-39
2023/08/12 10:54:54;;;;;;;7.70;3.22;;;18.80;99.90;;;;;;5062436;28;20082;-41
2023/08/12 10:57:39;;;;;;;8.38;3.45;;;18.90;99.90;;;;;;5076413;28;20127;-43
2023/08/12 11:00:07;;;;;;;5.65;2.88;;;19.00;99.90;;;;;;5045545;28;20498;-43
2023/08/12 11:02:33;;;;;;;7.53;2.85;;;19.20;99.90;;;;;;5072849;28;20154;-43
2023/08/12 11:05:06;;;;;;;6.88;3.30;;;19.30;99.90;;;;;;5076078;28;20476;-44
2023/08/12 11:07:44;;;;;;;8.73;3.65;;;19.30;99.90;;;;;;5075266;28;20095;-42
2023/08/12 11:10:21;;;;;;;8.90;3.53;;;19.30;99.90;;;;;;5076674;28;20058;-48
2023/08/12 11:12:57;;;;;;;8.00;3.42;;;19.30;99.90;;;;;;5044120;28;20048;-40
2023/08/12 11:15:31;;;;;;;9.13;3.35;;;19.30;99.90;;;;;;5054145;28;20479;-44
2023/08/12 11:17:57;;;;;;;9.13;3.63;;;19.30;99.90;;;;;;5056554;28;20102;-42
2023/08/12 11:20:22;;;;;;;11.30;3.92;;;19.30;99.90;;;;;;5056408;28;20088;-45
2023/08/12 11:22:49;;;;;;;8.10;4.20;;;19.30;99.90;;;;;;5071357;28;20040;-45
2023/08/12 11:25:15;;;;;;;9.63;3.40;;;19.30;99.90;;;;;;5077375;28;20055;-44
2023/08/12 11:27:45;;;;;;;7.05;3.63;;;19.40;99.90;;;;;;5077412;28;20489;-45
2023/08/12 11:30:20;;;;;;;7.90;4.07;;;19.30;99.90;;;;;;5076505;28;20052;-44
2023/08/12 11:32:55;;;;;;;9.50;4.18;;;19.40;99.90;;;;;;5077490;28;20118;-41
2023/08/12 11:35:23;;;;;;;8.95;3.58;;;19.30;99.90;;;;;;5076172;28;20060;-41
2023/08/12 11:37:55;;;;;;;12.23;4.75;;;19.30;99.90;;;;;;5075642;28;20052;-44
2023/08/12 11:40:22;;;;;;;;;;;19.20;99.90;;;;;;5076889;28;20051;-43
2023/08/12 11:42:49;;;;;;;9.32;4.43;;;19.30;99.90;;;;;;5074796;28;20294;-48
2023/08/12 11:45:18;;;;;;;6.55;4.18;;;19.30;99.90;;;;;;5076633;28;20089;-45
2023/08/12 11:47:45;;;;;;;6.75;4.28;;;19.30;99.90;;;;;;5075837;28;20051;-44
2023/08/12 11:50:12;;;;;;;8.88;4.80;;;19.60;99.90;;;;;;5075797;28;20044;-44
2023/08/12 11:52:39;;;;;;;8.40;4.50;;;19.70;99.90;;;;;;5050867;28;20279;-46
2023/08/12 11:55:06;;;;;;;11.15;5.38;;;19.90;99.90;;;;;;5055867;28;20044;-43
2023/08/12 11:57:36;;;;;;;12.80;5.85;;;20.00;99.90;;;;;;5069172;28;20055;-44
2023/08/12 12:00:05;;;;;;;14.45;6.30;;;20.10;99.90;;;;;;5058068;28;20407;-42
2023/08/12 12:02:31;;;;;;;11.13;5.00;;;20.20;99.90;;;;;;5073280;28;20052;-43
2023/08/12 12:04:57;;;;;;;9.23;4.55;;;20.50;99.90;;;;;;5054900;28;20050;-45
2023/08/12 12:07:25;;;;;;;10.65;4.03;;;20.70;99.90;;;;;;5070427;28;20052;-42
2023/08/12 12:09:54;;;;;;;8.75;4.00;;;21.00;99.90;;;;;;5075497;28;20051;-43
2023/08/12 12:12:27;;;;;;;9.45;4.50;;;21.20;99.90;;;;;;5075867;28;20056;-44
2023/08/12 12:14:56;;;;;;;7.03;3.72;;;21.30;99.90;;;;;;5062267;28;20059;-41
2023/08/12 12:17:23;;;;;;;10.25;4.55;;;21.40;99.90;;;;;;5055119;28;20351;-43
2023/08/12 12:19:59;;;;;;;11.75;4.07;;;21.50;99.90;;;;;;5048582;28;20044;-45
2023/08/12 12:22:29;;;;;;;13.10;4.95;;;21.50;99.90;;;;;;5069051;28;20244;-47
2023/08/12 12:24:59;;;;;;;8.02;3.95;;;21.60;99.90;;;;;;5075973;28;20056;-41
2023/08/12 12:27:26;;;;;;;11.02;4.40;;;21.70;99.90;;;;;;5073388;28;20433;-41
2023/08/12 12:29:52;;;;;;;10.68;3.85;;;21.70;99.90;;;;;;5074981;28;20502;-44
2023/08/12 12:32:20;;;;;;;10.35;4.07;;;21.70;99.90;;;;;;5075810;28;20074;-43